Time,TemperatureF,DewpointF,PressureIn,WindDirection,WindDirectionDegrees,WindSpeedMPH,WindSpeedGustMPH,Humidity,HourlyPrecipIn,Conditions,Clouds,dailyrainin,SoftwareType,DateUTC
2014-01-25 00:28:00,15.2,-2.3,30.14,SSW,193,0.0,0.0,45,0.00,,CLR,0.00,VWS V12.07,2014-01-25 05:28:00,
2014-01-25 00:58:00,13.8,0.2,30.12,SSW,193,0.0,0.0,54,0.00,,CLR,0.00,VWS V12.07,2014-01-25 05:58:00,
2014-01-25 01:28:00,13.3,0.2,30.10,SSW,193,0.0,0.0,55,0.00,,CLR,0.00,VWS V12.07,2014-01-25 06:28:00,
2014-01-25 01:58:00,13.5,-1.2,30.08,SSW,193,0.0,0.0,51,0.00,,CLR,0.00,VWS V12.07,2014-01-25 06:58:00,
2014-01-25 02:28:00,13.1,-1.6,30.07,SSW,193,0.0,0.0,51,0.00,,CLR,0.00,VWS V12.07,2014-01-25 07:28:00,
2014-01-25 02:58:00,13.5,-0.8,30.04,SSW,193,0.0,0.0,52,0.00,,CLR,0.00,VWS V12.07,2014-01-25 07:58:00,
2014-01-25 03:28:00,12.4,-0.3,30.02,SSW,193,0.0,0.0,56,0.00,,CLR,0.00,VWS V12.07,2014-01-25 08:28:00,
2014-01-25 03:58:00,12.9,0.6,29.99,SSW,193,0.0,0.0,57,0.00,,CLR,0.00,VWS V12.07,2014-01-25 08:58:00,
2014-01-25 04:28:00,13.8,1.0,29.97,SSW,193,0.0,0.0,56,0.00,,CLR,0.00,VWS V12.07,2014-01-25 09:28:00,
2014-01-25 04:58:00,14.4,3.1,29.94,SSW,193,0.0,0.0,60,0.00,,CLR,0.00,VWS V12.07,2014-01-25 09:58:00,
2014-01-25 05:28:00,14.6,4.3,29.94,SSW,193,0.0,0.0,63,0.00,,CLR,0.00,VWS V12.07,2014-01-25 10:28:00,
2014-01-25 05:58:00,15.4,5.4,29.91,SSW,193,0.0,0.0,64,0.00,,CLR,0.00,VWS V12.07,2014-01-25 10:58:00,
2014-01-25 06:28:00,16.1,4.7,29.90,SSW,193,0.0,0.0,60,0.00,,CLR,0.00,VWS V12.07,2014-01-25 11:28:00,
2014-01-25 06:58:00,16.9,2.3,29.88,SSW,193,0.0,0.0,52,0.00,,CLR,0.00,VWS V12.07,2014-01-25 11:58:00,
2014-01-25 07:28:00,17.5,2.5,29.88,SSW,198,0.0,1.0,51,0.00,,CLR,0.00,VWS V12.07,2014-01-25 12:28:00,
2014-01-25 07:58:00,17.7,2.7,29.86,SSW,198,0.0,0.0,51,0.00,,BKN120,0.00,VWS V12.07,2014-01-25 12:58:00,
2014-01-25 08:28:00,18.1,4.7,29.84,SSW,198,0.0,0.0,55,0.00,,BKN120,0.00,VWS V12.07,2014-01-25 13:28:00,
2014-01-25 08:58:00,18.6,5.1,29.82,SW,234,0.0,0.0,55,0.00,,FEW100,0.00,VWS V12.07,2014-01-25 13:58:00,
2014-01-25 09:28:00,20.5,3.9,29.81,SW,234,0.0,0.0,48,0.00,,FEW100,0.00,VWS V12.07,2014-01-25 14:28:00,
2014-01-25 09:58:00,23.8,1.9,29.78,SSW,198,0.0,0.0,38,0.00,,CLR,0.00,VWS V12.07,2014-01-25 14:58:00,
2014-01-25 10:28:00,26.0,2.1,29.78,SSW,203,0.0,0.0,35,0.00,,CLR,0.00,VWS V12.07,2014-01-25 15:28:00,
2014-01-25 10:58:00,27.5,1.5,29.74,SW,227,0.0,2.0,32,0.00,,CLR,0.00,VWS V12.07,2014-01-25 15:58:00,
2014-01-25 11:28:00,29.4,0.3,29.73,South,174,1.0,1.0,28,0.00,,CLR,0.00,VWS V12.07,2014-01-25 16:28:00,
2014-01-25 11:58:00,32.7,2.4,29.70,SW,215,4.0,4.0,27,0.00,,OVC070,0.00,VWS V12.07,2014-01-25 16:58:00,
2014-01-25 12:28:00,33.8,2.6,29.68,SSW,200,0.0,0.0,26,0.00,,OVC070,0.00,VWS V12.07,2014-01-25 17:28:00,
2014-01-25 12:58:00,35.0,2.8,29.66,SSW,213,5.0,6.0,25,0.00,,CLR,0.00,VWS V12.07,2014-01-25 17:58:00,
2014-01-25 13:28:00,35.6,3.3,29.65,SSW,205,6.0,6.0,25,0.00,,CLR,0.00,VWS V12.07,2014-01-25 18:28:00,
2014-01-25 13:58:00,37.9,11.4,29.64,SSW,192,0.0,0.0,33,0.00,,OVC080,0.00,VWS V12.07,2014-01-25 18:58:00,
2014-01-25 14:28:00,38.8,13.5,29.62,SSW,213,7.0,9.0,35,0.00,,OVC080,0.00,VWS V12.07,2014-01-25 19:28:00,
2014-01-25 14:58:00,38.5,21.5,29.61,SSW,196,6.0,8.0,50,0.00,,OVC065,0.00,VWS V12.07,2014-01-25 19:58:00,
2014-01-25 15:28:00,37.8,21.3,29.62,SSW,198,10.0,12.0,51,0.00,,OVC065,0.00,VWS V12.07,2014-01-25 20:28:00,
2014-01-25 15:58:00,37.6,21.1,29.64,SW,224,4.0,5.0,51,0.00,,BKN060,0.00,VWS V12.07,2014-01-25 20:58:00,
2014-01-25 16:28:00,37.5,21.0,29.64,SW,230,1.0,2.0,51,0.00,,BKN060,0.00,VWS V12.07,2014-01-25 21:28:00,
2014-01-25 16:58:00,37.2,21.2,29.65,SSW,210,4.0,5.0,52,0.00,,OVC046,0.00,VWS V12.07,2014-01-25 21:58:00,
2014-01-25 17:28:00,36.9,17.6,29.66,SSW,206,7.0,7.0,45,0.00,,OVC046,0.00,VWS V12.07,2014-01-25 22:28:00,
2014-01-25 17:58:00,36.0,16.2,29.68,WSW,251,0.0,0.0,44,0.00,,OVC070,0.00,VWS V12.07,2014-01-25 22:58:00,
2014-01-25 18:28:00,34.7,14.5,29.69,South,186,0.0,0.0,43,0.00,,OVC070,0.00,VWS V12.07,2014-01-25 23:28:00,
2014-01-25 18:58:00,35.0,14.2,29.70,WSW,241,2.0,2.0,42,0.00,,FEW070,0.00,VWS V12.07,2014-01-25 23:58:00,
2014-01-25 19:28:00,35.9,14.5,29.69,SSW,202,3.0,3.0,41,0.00,,CLR,0.00,VWS V12.07,2014-01-26 00:28:00,
2014-01-25 19:58:00,35.5,15.8,29.69,SSW,196,1.0,1.0,44,0.00,,CLR,0.00,VWS V12.07,2014-01-26 00:58:00,
2014-01-25 20:28:00,36.2,15.9,29.71,WSW,250,2.0,2.0,43,0.00,,CLR,0.00,VWS V12.07,2014-01-26 01:28:00,
2014-01-25 20:58:00,36.9,14.9,29.70,SSW,200,5.0,6.0,40,0.00,,CLR,0.00,VWS V12.07,2014-01-26 01:58:00,
2014-01-25 21:28:00,38.5,14.5,29.69,SW,222,6.0,12.0,37,0.00,,CLR,0.00,VWS V12.07,2014-01-26 02:28:00,
2014-01-25 21:58:00,38.5,15.1,29.69,WNW,284,6.0,6.0,38,0.00,,SCT070,0.00,VWS V12.07,2014-01-26 02:58:00,
2014-01-25 22:28:00,38.8,16.0,29.70,SW,233,6.0,10.0,39,0.00,,SCT070,0.00,VWS V12.07,2014-01-26 03:28:00,
2014-01-25 22:58:00,38.5,15.1,29.71,West,260,10.0,10.0,38,0.00,,CLR,0.00,VWS V12.07,2014-01-26 03:58:00,
2014-01-25 23:28:00,37.9,15.8,29.71,WSW,240,6.0,11.0,40,0.00,,CLR,0.00,VWS V12.07,2014-01-26 04:28:00,
2014-01-25 23:58:00,37.5,15.4,29.72,WSW,237,6.0,6.0,40,0.00,,CLR,0.00,VWS V12.07,2014-01-26 04:58:00,